Time;durP1;ratioP1;P1;durP2;ratioP2;P2;SDS_P1;SDS_P2;PMS_P1;PMS_P2;Temp;Humidity;BMP_temperature;BMP_pressure;BME280_temperature;BME280_humidity;BME280_pressure;Samples;Min_cycle;Max_cycle;Signal;HPM_P1;HPM_P2
2024/04/08 00:03:03;;;;;;;4.45;1.90;;;;;;;17.63;80.24;100594.41;5094125;28;20058;-77
2024/04/08 00:06:08;;;;;;;4.57;2.03;;;;;;;17.57;80.63;100595.94;5094216;28;20051;-79
2024/04/08 00:09:12;;;;;;;9.65;2.55;;;;;;;17.45;80.64;100587.28;5094092;28;20059;-76
2024/04/08 00:12:17;;;;;;;5.70;2.25;;;;;;;17.34;81.31;100582.22;5093806;28;20062;-77
2024/04/08 00:15:22;;;;;;;5.93;2.35;;;;;;;17.43;81.04;100581.19;5093959;28;20039;-77
2024/04/08 00:18:27;;;;;;;4.60;1.73;;;;;;;17.40;80.27;100578.84;5093876;28;20047;-79
2024/04/08 00:21:31;;;;;;;3.95;1.85;;;;;;;17.38;80.52;100574.59;5093413;28;20066;-77
2024/04/08 00:24:36;;;;;;;5.05;2.05;;;;;;;17.42;80.64;100568.66;5093938;28;20043;-80
2024/04/08 00:27:40;;;;;;;9.68;3.13;;;;;;;17.44;80.40;100574.75;5081239;28;20043;-79
2024/04/08 00:30:45;;;;;;;6.72;2.10;;;;;;;17.60;79.35;100571.19;5093162;28;20063;-82
2024/04/08 00:33:50;;;;;;;6.72;2.10;;;;;;;17.42;79.86;100565.09;5093642;28;20459;-79
2024/04/08 00:36:54;;;;;;;4.32;2.00;;;;;;;17.59;79.32;100557.75;5093627;28;20482;-80
2024/04/08 00:39:59;;;;;;;4.90;1.90;;;;;;;17.51;79.57;100562.16;5081086;28;20058;-76
2024/04/08 00:43:07;;;;;;;7.88;2.05;;;;;;;17.59;79.16;100558.63;5061162;28;20106;-79
2024/04/08 00:46:25;;;;;;;9.57;2.28;;;;;;;17.49;79.26;100556.06;5073175;28;20051;-79
2024/04/08 00:49:32;;;;;;;7.63;2.55;;;;;;;17.50;79.40;100546.88;5051485;28;20055;-78
2024/04/08 00:52:38;;;;;;;3.90;1.90;;;;;;;17.50;79.50;100536.03;5073239;28;20495;-80
2024/04/08 00:55:46;;;;;;;4.13;1.60;;;;;;;17.46;79.56;100537.41;5076960;28;20055;-77
2024/04/08 00:58:51;;;;;;;6.15;2.05;;;;;;;17.32;79.96;100531.84;5079330;28;20063;-77
2024/04/08 01:01:55;;;;;;;4.07;2.33;;;;;;;17.40;79.19;100535.41;5067503;28;20051;-73
2024/04/08 01:05:01;;;;;;;8.50;2.20;;;;;;;17.32;79.81;100531.84;5067253;28;20048;-75
2024/04/08 01:08:07;;;;;;;3.75;1.90;;;;;;;17.36;79.90;100538.63;5067639;28;20055;-77
2024/04/08 01:11:14;;;;;;;5.30;1.83;;;;;;;17.44;79.30;100539.47;5079841;28;20051;-75
2024/04/08 01:14:18;;;;;;;5.70;2.78;;;;;;;17.51;78.93;100542.31;5067402;28;20063;-76
2024/04/08 01:17:23;;;;;;;4.75;1.77;;;;;;;17.69;78.38;100548.41;5079633;28;20043;-77
2024/04/08 01:20:28;;;;;;;3.70;1.85;;;;;;;17.78;77.93;100549.19;5079640;28;20059;-76
2024/04/08 01:23:41;;;;;;;5.85;1.95;;;;;;;17.67;78.64;100549.59;5067123;28;20059;-78
2024/04/08 01:26:45;;;;;;;11.05;2.22;;;;;;;17.66;78.56;100535.16;5055766;28;20391;-77
2024/04/08 01:29:50;;;;;;;5.22;1.95;;;;;;;17.43;79.81;100531.50;5079328;28;20055;-78
2024/04/08 01:32:54;;;;;;;6.53;2.75;;;;;;;17.55;79.50;100535.56;5079636;28;20052;-78
2024/04/08 01:36:04;;;;;;;4.55;2.00;;;;;;;17.49;79.55;100534.34;5079282;28;20051;-77
2024/04/08 01:39:09;;;;;;;3.58;2.05;;;;;;;17.53;79.38;100541.16;5067183;28;20052;-77
2024/04/08 01:42:14;;;;;;;5.82;2.00;;;;;;;17.44;79.79;100531.31;5079364;28;20060;-74
2024/04/08 01:45:18;;;;;;;7.50;2.00;;;;;;;17.37;80.12;100526.75;5079581;28;20051;-76
2024/04/08 01:48:23;;;;;;;6.80;1.90;;;;;;;17.30;80.48;100521.19;5079004;28;20498;-75
2024/04/08 01:51:28;;;;;;;7.07;2.50;;;;;;;17.16;80.89;100516.47;5079426;28;20052;-75
2024/04/08 01:54:32;;;;;;;6.68;2.03;;;;;;;17.26;80.53;100516.25;5079519;28;20047;-77
2024/04/08 01:57:37;;;;;;;6.95;2.08;;;;;;;17.32;80.00;100521.88;5078630;28;20399;-76
2024/04/08 02:00:42;;;;;;;5.30;1.88;;;;;;;17.30;79.71;100513.06;5079334;28;20561;-76
2024/04/08 02:03:46;;;;;;;6.00;2.00;;;;;;;17.17;80.36;100514.59;5079315;28;20052;-76
2024/04/08 02:06:50;;;;;;;5.40;1.85;;;;;;;17.17;80.37;100501.88;5076798;28;20060;-77
2024/04/08 02:09:55;;;;;;;7.82;2.10;;;;;;;16.98;81.13;100493.28;5075727;28;20052;-77
2024/04/08 02:12:59;;;;;;;7.07;2.80;;;;;;;16.92;81.14;100492.09;5076054;28;20056;-77
2024/04/08 02:16:07;;;;;;;4.80;1.90;;;;;;;16.75;81.18;100490.44;5075667;28;20056;-77
2024/04/08 02:19:12;;;;;;;3.90;2.00;;;;;;;16.92;80.89;100483.97;5075866;28;20056;-77
2024/04/08 02:22:16;;;;;;;5.40;2.35;;;;;;;16.77;80.74;100493.81;5063468;28;20060;-76
2024/04/08 02:25:20;;;;;;;4.47;1.95;;;;;;;16.76;81.06;100505.69;5075951;28;20047;-77
2024/04/08 02:28:24;;;;;;;6.15;1.92;;;;;;;16.80;80.96;100493.47;5062872;28;20493;-78
2024/04/08 02:31:29;;;;;;;4.97;2.00;;;;;;;16.86;80.82;100487.38;5075385;28;20047;-78
2024/04/08 02:34:33;;;;;;;5.05;2.10;;;;;;;16.83;81.04;100487.72;5075368;28;20052;-79
2024/04/08 02:37:39;;;;;;;5.32;2.20;;;;;;;16.84;80.88;100492.09;5075485;28;20063;-79
2024/04/08 02:40:44;;;;;;;8.63;2.75;;;;;;;16.87;80.49;100497.19;5075314;28;20052;-79
2024/04/08 02:43:48;;;;;;;6.50;2.08;;;;;;;16.83;80.83;100487.72;5075014;28;20048;-79
2024/04/08 02:46:52;;;;;;;4.35;2.03;;;;;;;16.68;81.67;100475.88;5075318;28;20055;-79
2024/04/08 02:49:57;;;;;;;8.68;3.10;;;;;;;16.78;81.03;100480.09;5075219;28;20052;-79
2024/04/08 02:53:02;;;;;;;4.38;1.77;;;;;;;16.82;80.61;100486.00;5075408;28;20064;-79
2024/04/08 02:56:07;;;;;;;7.20;1.75;;;;;;;16.92;79.92;100486.69;5075196;28;20040;-78
2024/04/08 02:59:11;;;;;;;6.07;2.40;;;;;;;16.95;79.98;100486.34;5074964;28;20075;-78
2024/04/08 03:02:16;;;;;;;4.90;2.10;;;;;;;16.77;80.96;100482.97;5075036;28;20506;-78
2024/04/08 03:05:20;;;;;;;7.07;2.13;;;;;;;16.70;80.94;100481.97;5074998;28;20067;-77
2024/04/08 03:08:25;;;;;;;6.95;2.42;;;;;;;16.71;80.40;100473.66;5074507;28;20510;-77
2024/04/08 03:11:30;;;;;;;6.28;1.98;;;;;;;16.73;80.63;100476.22;5074559;28;20051;-77
2024/04/08 03:14:34;;;;;;;6.45;1.90;;;;;;;16.65;81.19;100468.94;5074633;28;20486;-77
2024/04/08 03:17:40;;;;;;;6.03;1.88;;;;;;;16.51;81.90;100476.88;5074609;28;20158;-76
2024/04/08 03:20:53;;;;;;;4.88;1.80;;;;;;;16.67;80.82;100474.16;5074834;28;20055;-76
2024/04/08 03:23:58;;;;;;;5.22;2.22;;;;;;;16.52;81.43;100476.72;5074709;28;20057;-77
2024/04/08 03:27:03;;;;;;;7.88;1.92;;;;;;;16.54;81.74;100473.84;5074534;28;20051;-76
2024/04/08 03:30:08;;;;;;;6.72;2.13;;;;;;;16.68;80.79;100481.28;5074439;28;20486;-77
2024/04/08 03:33:12;;;;;;;5.38;2.15;;;;;;;16.46;81.76;100476.53;5062003;28;20067;-77
2024/04/08 03:36:17;;;;;;;6.53;1.88;;;;;;;16.56;81.28;100482.66;5074478;28;20052;-76
2024/04/08 03:39:21;;;;;;;7.35;2.47;;;;;;;16.66;81.28;100469.78;5074017;28;20051;-76
2024/04/08 03:42:26;;;;;;;3.47;1.63;;;;;;;16.76;80.54;100475.88;5074424;28;20048;-76
2024/04/08 03:45:32;;;;;;;3.90;1.52;;;;;;;16.68;81.03;100475.88;5074407;28;20051;-78
2024/04/08 03:48:37;;;;;;;7.07;1.85;;;;;;;16.61;80.85;100466.72;5061858;28;20055;-78
2024/04/08 03:51:41;;;;;;;5.82;1.95;;;;;;;16.61;81.15;100475.72;5061999;28;20056;-79
2024/04/08 03:54:46;;;;;;;7.05;1.95;;;;;;;16.71;81.01;100480.97;5073962;28;20047;-76
2024/04/08 03:57:51;;;;;;;5.38;1.55;;;;;;;16.81;80.55;100481.63;5073552;28;20399;-78
2024/04/08 04:01:02;;;;;;;8.35;1.85;;;;;;;16.83;80.08;100477.72;5073946;28;20052;-77
2024/04/08 04:04:08;;;;;;;4.72;1.73;;;;;;;16.98;79.47;100477.00;5073845;28;20043;-78
2024/04/08 04:07:12;;;;;;;5.28;1.73;;;;;;;17.00;79.35;100483.97;5073690;28;20059;-77
2024/04/08 04:10:20;;;;;;;3.33;1.55;;;;;;;17.06;78.99;100480.53;5061640;28;20059;-77
2024/04/08 04:13:24;;;;;;;6.70;1.88;;;;;;;16.91;79.70;100491.25;5073734;28;20048;-77
2024/04/08 04:16:28;;;;;;;9.25;2.03;;;;;;;16.77;80.07;100472.13;5073766;28;20111;-78
2024/04/08 04:19:34;;;;;;;5.78;1.80;;;;;;;16.79;80.08;100475.50;5061706;28;20044;-76
2024/04/08 04:22:39;;;;;;;9.38;1.73;;;;;;;16.84;80.13;100471.25;5073391;28;20502;-76
2024/04/08 04:25:52;;;;;;;5.05;1.90;;;;;;;16.82;80.02;100458.91;5073748;28;20055;-76
2024/04/08 04:28:58;;;;;;;6.45;1.88;;;;;;;16.47;81.10;100465.50;5073486;28;20059;-76
2024/04/08 04:32:03;;;;;;;6.75;2.03;;;;;;;16.33;82.36;100468.91;5073181;28;20048;-77
2024/04/08 04:35:08;;;;;;;9.43;2.25;;;;;;;16.35;82.04;100466.00;5073336;28;20487;-77
2024/04/08 04:38:13;;;;;;;5.65;1.85;;;;;;;16.61;80.98;100458.59;5073435;28;20056;-76
2024/04/08 04:41:20;;;;;;;5.30;1.88;;;;;;;16.60;80.93;100455.03;5073304;28;20051;-74
2024/04/08 04:44:24;;;;;;;6.05;1.77;;;;;;;16.63;80.89;100460.13;5073589;28;20399;-75
2024/04/08 04:47:29;;;;;;;7.45;1.73;;;;;;;16.64;80.83;100471.81;5073418;28;20154;-74
2024/04/08 04:50:34;;;;;;;5.32;1.90;;;;;;;16.39;81.73;100475.50;5073091;28;20063;-76
2024/04/08 04:53:38;;;;;;;8.68;2.67;;;;;;;16.44;81.39;100473.16;5073168;28;20367;-78
2024/04/08 04:56:42;;;;;;;8.77;2.63;;;;;;;16.45;81.26;100478.38;5073209;28;20052;-77
2024/04/08 04:59:47;;;;;;;5.47;2.70;;;;;;;16.58;80.61;100481.47;5072835;28;20150;-77
2024/04/08 05:02:52;;;;;;;4.80;1.73;;;;;;;16.67;80.28;100488.56;5073265;28;20430;-79
2024/04/08 05:05:57;;;;;;;7.97;2.15;;;;;;;16.76;79.96;100487.53;5073296;28;20075;-79
2024/04/08 05:09:02;;;;;;;6.55;1.95;;;;;;;16.77;80.04;100491.09;5073155;28;20051;-79
2024/04/08 05:12:07;;;;;;;7.57;2.10;;;;;;;16.62;79.69;100492.81;5060902;28;20051;-77
2024/04/08 05:15:11;;;;;;;6.95;2.10;;;;;;;16.84;79.82;100494.81;5073026;28;20055;-80
2024/04/08 05:18:18;;;;;;;5.43;1.80;;;;;;;17.06;78.54;100493.28;5060519;28;20059;-78
2024/04/08 05:21:23;;;;;;;9.55;1.90;;;;;;;17.44;77.59;100500.63;5073040;28;20069;-77
2024/04/08 05:24:27;;;;;;;5.05;1.65;;;;;;;17.84;76.57;100508.63;5072539;28;20482;-79
2024/04/08 05:27:32;;;;;;;5.75;1.70;;;;;;;17.97;75.27;100500.72;5073115;28;20490;-76
2024/04/08 05:30:37;;;;;;;6.57;2.10;;;;;;;18.08;75.11;100510.34;5072672;28;20055;-77
2024/04/08 05:33:41;;;;;;;11.57;2.50;;;;;;;18.38;74.29;100523.06;5072704;28;20052;-76
2024/04/08 05:36:46;;;;;;;7.75;2.75;;;;;;;18.84;72.73;100526.63;5060441;28;20064;-77
2024/04/08 05:39:51;;;;;;;8.85;2.25;;;;;;;19.03;71.43;100533.44;5072654;28;20048;-78
2024/04/08 05:42:56;;;;;;;6.70;2.08;;;;;;;18.96;72.13;100538.75;5062836;28;20510;-78
2024/04/08 05:46:00;;;;;;;9.20;2.70;;;;;;;19.13;72.06;100539.47;5076333;28;20051;-76
2024/04/08 05:49:05;;;;;;;6.55;2.38;;;;;;;19.38;71.16;100549.94;5076221;28;20056;-75
2024/04/08 05:52:09;;;;;;;10.63;4.03;;;;;;;18.62;73.15;100539.22;5063623;28;20056;-77
2024/04/08 05:55:14;;;;;;;17.63;8.18;;;;;;;19.17;71.88;100549.78;5076442;28;20495;-76
2024/04/08 05:58:19;;;;;;;14.63;6.68;;;;;;;19.22;71.36;100550.06;5075770;28;20048;-75
2024/04/08 06:01:37;;;;;;;13.52;4.65;;;;;;;19.42;70.93;100544.97;5090722;28;20119;-76
2024/04/08 06:04:42;;;;;;;15.27;3.63;;;;;;;19.58;70.15;100547.50;5096581;28;20055;-77
2024/04/08 06:07:50;;;;;;;7.22;3.28;;;;;;;19.57;69.81;100561.31;5095928;28;20051;-78
2024/04/08 06:11:02;;;;;;;6.75;3.30;;;;;;;19.58;70.17;100558.38;5096456;28;20370;-82
2024/04/08 06:14:06;;;;;;;10.00;3.53;;;;;;;19.62;69.83;100559.72;5096432;28;20063;-80
2024/04/08 06:17:11;;;;;;;8.90;3.53;;;;;;;19.68;69.44;100558.94;5096182;28;20048;-79
2024/04/08 06:20:16;;;;;;;8.80;4.03;;;;;;;19.79;68.89;100560.38;5083504;28;20047;-80
2024/04/08 06:23:21;;;;;;;9.40;3.05;;;;;;;19.83;68.23;100576.13;5096233;28;20095;-80
2024/04/08 06:26:25;;;;;;;11.38;3.47;;;;;;;19.94;67.79;100580.28;5096378;28;20071;-74
2024/04/08 06:29:29;;;;;;;7.88;3.45;;;;;;;19.90;67.86;100573.53;5096279;28;20047;-75
2024/04/08 06:32:35;;;;;;;13.82;5.78;;;;;;;19.98;67.37;100581.56;5096341;28;20520;-77
2024/04/08 06:35:45;;;;;;;16.08;7.95;;;;;;;19.88;67.61;100570.13;5096234;28;20036;-77
2024/04/08 06:38:51;;;;;;;16.70;4.28;;;;;;;19.58;67.93;100566.56;5083207;28;20040;-76
2024/04/08 06:41:56;;;;;;;12.05;4.60;;;;;;;19.78;67.27;100570.41;5095899;28;20051;-77
2024/04/08 06:45:02;;;;;;;8.52;3.35;;;;;;;19.50;68.10;100569.41;5096096;28;20051;-77
2024/04/08 06:48:07;;;;;;;14.50;3.47;;;;;;;19.44;68.76;100578.28;5096152;28;20047;-76
2024/04/08 06:51:12;;;;;;;12.07;5.03;;;;;;;19.44;69.28;100575.56;5096275;28;20048;-78
2024/04/08 06:54:16;;;;;;;8.95;2.95;;;;;;;19.30;68.93;100570.94;5082993;28;20052;-74
2024/04/08 06:57:21;;;;;;;8.85;3.13;;;;;;;19.39;69.12;100578.00;5095244;28;20070;-75
2024/04/08 07:00:26;;;;;;;12.45;4.45;;;;;;;19.51;68.92;100578.38;5095759;28;20067;-76
2024/04/08 07:03:30;;;;;;;9.23;4.10;;;;;;;19.65;68.46;100588.47;5083120;28;20047;-75
2024/04/08 07:06:35;;;;;;;12.68;4.78;;;;;;;19.59;68.57;100579.16;5095610;28;20055;-77
2024/04/08 07:09:40;;;;;;;13.52;5.97;;;;;;;19.80;67.85;100583.88;5095557;28;20075;-76
2024/04/08 07:12:44;;;;;;;11.68;4.65;;;;;;;19.98;67.27;100578.84;5095614;28;20044;-77
2024/04/08 07:15:54;;;;;;;15.05;6.40;;;;;;;20.21;66.85;100586.91;5095523;28;20051;-76
2024/04/08 07:18:59;;;;;;;14.30;4.95;;;;;;;20.39;66.32;100576.47;5095254;28;20048;-74
2024/04/08 07:22:04;;;;;;;12.10;5.13;;;;;;;20.59;65.84;100580.25;5095241;28;20067;-75
2024/04/08 07:25:09;;;;;;;16.77;6.78;;;;;;;21.21;63.19;100583.16;5095516;28;20051;-75
2024/04/08 07:28:14;;;;;;;13.27;5.68;;;;;;;22.02;61.48;100593.41;5095391;28;20051;-75
2024/04/08 07:31:19;;;;;;;17.25;5.05;;;;;;;24.43;53.46;100593.72;5082965;28;20055;-76
2024/04/08 07:34:23;;;;;;;7.57;2.83;;;;;;;27.04;45.28;100597.66;5082715;28;20497;-76
2024/04/08 07:37:28;;;;;;;11.07;2.67;;;;;;;28.52;41.06;100587.91;5095119;28;20047;-76
2024/04/08 07:40:32;;;;;;;12.50;3.38;;;;;;;29.44;39.39;100594.06;5094985;28;20047;-74
2024/04/08 07:43:37;;;;;;;7.95;3.20;;;;;;;29.85;38.51;100601.91;5094949;28;20047;-74
2024/04/08 07:46:41;;;;;;;8.23;3.30;;;;;;;30.81;37.27;100603.19;5094936;28;20055;-76
2024/04/08 07:49:47;;;;;;;9.20;2.90;;;;;;;31.40;35.77;100598.47;5094690;28;20402;-75
2024/04/08 07:52:52;;;;;;;7.65;3.58;;;;;;;32.18;34.83;100603.22;5094300;28;20039;-75
2024/04/08 07:55:57;;;;;;;10.48;4.85;;;;;;;34.19;31.62;100593.44;5094519;28;20372;-75
2024/04/08 07:59:02;;;;;;;6.47;2.67;;;;;;;35.34;29.44;100600.31;5093937;28;20036;-75
2024/04/08 08:02:07;;;;;;;15.15;13.20;;;;;;;37.09;27.69;100612.59;5094530;28;20043;-74
2024/04/08 08:05:12;;;;;;;7.85;3.72;;;;;;;37.08;27.65;100622.16;5081389;28;20048;-75
2024/04/08 08:08:17;;;;;;;10.38;5.25;;;;;;;37.94;27.10;100613.13;5094463;28;20158;-75
2024/04/08 08:11:21;;;;;;;50.40;45.05;;;;;;;38.77;25.66;100620.41;5070466;28;20047;-75
2024/04/08 08:14:26;;;;;;;8.18;3.47;;;;;;;38.68;26.36;100617.50;5094391;28;20048;-75
2024/04/08 08:17:31;;;;;;;12.55;3.65;;;;;;;36.72;27.60;100613.38;5094183;28;20394;-75
2024/04/08 08:20:38;;;;;;;8.25;2.75;;;;;;;35.67;29.93;100607.06;5081941;28;20146;-75
2024/04/08 08:23:43;;;;;;;7.28;3.10;;;;;;;35.21;30.62;100601.81;5081866;28;20047;-74
2024/04/08 08:26:47;;;;;;;21.85;16.55;;;;;;;34.26;31.20;100597.59;5094209;28;20059;-75
2024/04/08 08:29:52;;;;;;;11.00;3.30;;;;;;;33.11;33.12;100601.34;5094210;28;20051;-74
2024/04/08 08:32:57;;;;;;;9.45;6.07;;;;;;;32.95;33.00;100596.81;5070154;28;20043;-74
2024/04/08 08:36:01;;;;;;;6.20;3.08;;;;;;;32.04;34.74;100596.47;5094093;28;20051;-74
2024/04/08 08:39:06;;;;;;;5.68;3.13;;;;;;;32.58;34.06;100600.63;5081602;28;20509;-74
2024/04/08 08:42:18;;;;;;;7.95;3.95;;;;;;;32.13;34.33;100597.63;5093776;28;20422;-74
2024/04/08 08:45:24;;;;;;;9.90;3.75;;;;;;;31.49;35.43;100608.84;5094014;28;20390;-73
2024/04/08 08:48:28;;;;;;;8.55;3.75;;;;;;;30.87;36.86;100604.88;5081634;28;20051;-73
2024/04/08 08:51:34;;;;;;;6.82;3.05;;;;;;;30.99;36.22;100600.03;5093750;28;20051;-74
2024/04/08 08:54:39;;;;;;;10.50;3.25;;;;;;;31.42;35.64;100599.06;5093766;28;20106;-72
2024/04/08 08:57:44;;;;;;;6.70;3.10;;;;;;;31.83;35.45;100598.25;5093394;28;20509;-75
2024/04/08 09:00:49;;;;;;;5.40;2.67;;;;;;;32.79;34.15;100599.56;5081400;28;20051;-76
2024/04/08 09:03:55;;;;;;;10.48;4.03;;;;;;;32.79;34.02;100598.72;5093707;28;20047;-76
2024/04/08 09:06:59;;;;;;;27.15;14.98;;;;;;;32.42;34.87;100598.84;5093529;28;20047;-74
2024/04/08 09:10:04;;;;;;;37.03;20.27;;;;;;;32.12;34.83;100605.13;5093692;28;20048;-76
2024/04/08 09:13:29;;;;;;;6.93;4.05;;;;;;;31.68;35.80;100591.78;5093592;28;20048;-75
2024/04/08 09:16:34;;;;;;;9.27;3.33;;;;;;;31.16;36.55;100584.13;5095396;28;20051;-74
2024/04/08 09:19:39;;;;;;;10.75;4.75;;;;;;;30.87;37.28;100577.16;5097591;28;20551;-75
2024/04/08 09:22:43;;;;;;;5.65;2.08;;;;;;;30.33;37.08;100576.25;5097640;28;20051;-76
2024/04/08 09:25:48;;;;;;;7.65;2.60;;;;;;;29.72;39.60;100582.88;5097460;28;20125;-73
2024/04/08 09:28:53;;;;;;;61.72;33.97;;;;;;;29.38;39.96;100586.78;5097140;28;20047;-75
2024/04/08 09:32:00;;;;;;;17.02;8.70;;;;;;;29.06;39.94;100577.34;5073292;28;20040;-71
2024/04/08 09:35:08;;;;;;;9.15;3.63;;;;;;;28.15;44.07;100581.06;5097306;28;20122;-73
2024/04/08 09:38:13;;;;;;;8.75;3.33;;;;;;;27.02;46.27;100575.03;5097327;28;20059;-72
2024/04/08 09:41:20;;;;;;;8.07;3.08;;;;;;;26.47;48.02;100574.31;5096800;28;20051;-72
2024/04/08 09:44:30;;;;;;;6.38;3.05;;;;;;;25.86;48.71;100571.69;5097087;28;20075;-75
2024/04/08 09:47:37;;;;;;;8.18;2.40;;;;;;;26.14;46.09;100574.78;5097282;28;20063;-74
2024/04/08 09:50:42;;;;;;;6.20;2.42;;;;;;;25.98;45.60;100580.00;5097420;28;20051;-74
2024/04/08 09:53:48;;;;;;;7.78;3.58;;;;;;;26.31;48.13;100577.72;5097030;28;20486;-75
2024/04/08 09:56:58;;;;;;;8.45;2.85;;;;;;;26.37;49.18;100571.28;5096911;28;20063;-74
2024/04/08 10:00:04;;;;;;;6.20;3.22;;;;;;;26.27;48.24;100571.03;5096911;28;20047;-74
2024/04/08 10:03:15;;;;;;;6.60;3.30;;;;;;;26.10;49.76;100565.25;5096479;28;20497;-75
2024/04/08 10:06:21;;;;;;;9.88;3.90;;;;;;;25.35;49.76;100558.22;5096691;28;20051;-74
2024/04/08 10:09:26;;;;;;;7.63;2.85;;;;;;;25.51;52.64;100560.41;5096353;28;20062;-74
2024/04/08 10:12:32;;;;;;;6.70;3.13;;;;;;;25.37;52.71;100558.84;5096708;28;20055;-74
2024/04/08 10:15:37;;;;;;;5.53;2.55;;;;;;;25.49;51.59;100562.56;5096577;28;20075;-73
2024/04/08 10:18:53;;;;;;;8.35;3.20;;;;;;;25.43;51.90;100563.41;5096387;28;20055;-73
2024/04/08 10:22:02;;;;;;;10.07;3.08;;;;;;;25.49;53.32;100556.22;5084208;28;20047;-76
2024/04/08 10:25:33;;;;;;;10.32;3.35;;;;;;;25.52;51.01;100569.50;5096402;28;20051;-74
2024/04/08 10:28:42;;;;;;;5.53;2.38;;;;;;;25.32;51.32;100561.44;5082820;28;20043;-72
2024/04/08 10:31:47;;;;;;;8.07;3.25;;;;;;;25.57;53.18;100553.19;5096119;28;20051;-72
2024/04/08 10:34:57;;;;;;;7.68;3.08;;;;;;;25.64;52.01;100562.19;5096167;28;20047;-74
2024/04/08 10:38:17;;;;;;;6.50;3.25;;;;;;;25.68;51.97;100549.66;5096352;28;20067;-74
2024/04/08 10:41:22;;;;;;;9.27;3.42;;;;;;;25.26;55.01;100539.50;5096053;28;20063;-73
2024/04/08 10:44:31;;;;;;;9.23;3.75;;;;;;;25.66;53.03;100532.56;5095704;28;20054;-73
2024/04/08 10:47:36;;;;;;;6.72;3.30;;;;;;;25.61;53.46;100522.25;5095899;28;20067;-74
2024/04/08 10:50:41;;;;;;;8.50;3.30;;;;;;;25.71;52.43;100516.22;5095860;28;20055;-77
2024/04/08 10:53:45;;;;;;;8.60;3.90;;;;;;;25.58;54.58;100517.19;5095617;28;20493;-74
2024/04/08 10:56:50;;;;;;;7.93;4.15;;;;;;;24.87;53.77;100514.03;5095653;28;20154;-74
2024/04/08 10:59:55;;;;;;;7.07;4.00;;;;;;;25.15;54.51;100506.19;5095572;28;20043;-75
2024/04/08 11:02:59;;;;;;;7.60;4.07;;;;;;;25.42;56.31;100512.28;5071100;28;20052;-74
2024/04/08 11:06:04;;;;;;;6.38;4.60;;;;;;;25.16;55.66;100523.50;5082822;28;20065;-74
2024/04/08 11:09:09;;;;;;;11.15;5.68;;;;;;;24.90;55.00;100510.84;5095379;28;20051;-74
2024/04/08 11:12:14;;;;;;;8.23;4.70;;;;;;;24.94;55.24;100508.47;5095378;28;20067;-75
2024/04/08 11:15:19;;;;;;;9.98;5.80;;;;;;;25.20;56.37;100500.88;5095443;28;20048;-74
2024/04/08 11:18:27;;;;;;;9.07;4.90;;;;;;;25.41;55.78;100496.84;5095370;28;20040;-74
2024/04/08 11:21:34;;;;;;;10.52;4.40;;;;;;;25.89;54.89;100496.13;5095255;28;20493;-73
2024/04/08 11:24:42;;;;;;;7.85;4.75;;;;;;;25.67;55.50;100490.25;5082706;28;20055;-74
2024/04/08 11:27:47;;;;;;;6.25;4.40;;;;;;;25.88;54.06;100489.78;5095041;28;20067;-77
2024/04/08 11:30:53;;;;;;;12.23;4.57;;;;;;;26.09;52.02;100480.19;5094791;28;20051;-76
2024/04/08 11:33:58;;;;;;;8.90;5.47;;;;;;;26.11;51.18;100481.66;5094514;28;20122;-77
2024/04/08 11:37:03;;;;;;;7.88;4.82;;;;;;;25.85;52.23;100484.72;5094806;28;20051;-79
2024/04/08 11:40:08;;;;;;;8.38;5.20;;;;;;;25.68;52.67;100495.50;5094648;28;20055;-79
2024/04/08 11:43:13;;;;;;;9.70;4.85;;;;;;;25.56;52.63;100491.00;5094695;28;20055;-78
2024/04/08 11:46:21;;;;;;;9.25;4.22;;;;;;;25.69;53.56;100479.84;5094680;28;20101;-78
2024/04/08 11:49:26;;;;;;;9.45;4.93;;;;;;;25.95;51.33;100467.69;5094526;28;20055;-78
2024/04/08 11:52:31;;;;;;;11.23;4.40;;;;;;;25.82;52.53;100466.78;5094762;28;20051;-76
2024/04/08 11:55:37;;;;;;;8.85;4.63;;;;;;;25.81;52.37;100473.34;5094397;28;20051;-78
2024/04/08 11:58:42;;;;;;;9.95;5.18;;;;;;;25.71;52.06;100472.22;5051539;28;20152;-78
2024/04/08 12:01:48;;;;;;;8.70;5.13;;;;;;;25.86;51.89;100475.41;5052082;28;20140;-79
2024/04/08 12:04:54;;;;;;;11.95;4.88;;;;;;;25.93;51.96;100461.56;5051759;28;20148;-78
2024/04/08 12:07:58;;;;;;;8.90;5.05;;;;;;;25.79;51.60;100464.50;5051562;28;20151;-76
2024/04/08 12:11:03;;;;;;;8.23;4.22;;;;;;;26.00;50.61;100457.66;5051590;28;20067;-77
2024/04/08 12:14:08;;;;;;;15.73;4.35;;;;;;;25.99;49.83;100455.16;5051669;28;20152;-78
2024/04/08 12:17:13;;;;;;;10.75;5.07;;;;;;;26.18;49.69;100454.06;5051592;28;20048;-77
2024/04/08 12:20:17;;;;;;;8.32;4.65;;;;;;;26.03;48.71;100456.34;5051576;28;20052;-78
2024/04/08 12:23:22;;;;;;;11.20;4.57;;;;;;;25.68;50.22;100451.50;5051667;28;20048;-79
2024/04/08 12:26:26;;;;;;;7.15;4.10;;;;;;;25.56;51.81;100460.75;5051437;28;20117;-75
2024/04/08 12:29:31;;;;;;;8.55;3.90;;;;;;;25.68;50.29;100453.41;5065627;28;20406;-75
2024/04/08 12:32:35;;;;;;;7.97;3.67;;;;;;;25.81;49.42;100453.25;5072682;28;20055;-76
2024/04/08 12:35:42;;;;;;;8.32;3.90;;;;;;;25.98;49.95;100442.44;5073280;28;20468;-78
2024/04/08 12:38:47;;;;;;;10.45;4.35;;;;;;;25.90;50.16;100443.59;5073525;28;20067;-77
2024/04/08 12:41:52;;;;;;;7.90;3.75;;;;;;;26.02;49.73;100436.28;5073599;28;20501;-77
2024/04/08 12:44:56;;;;;;;6.50;4.10;;;;;;;25.94;51.15;100436.59;5073271;28;20048;-77
2024/04/08 12:48:01;;;;;;;7.43;4.45;;;;;;;25.92;50.54;100432.38;5073133;28;20398;-77
2024/04/08 12:51:07;;;;;;;6.65;4.03;;;;;;;25.94;50.25;100431.09;5072881;28;20057;-77
2024/04/08 12:54:11;;;;;;;10.98;4.68;;;;;;;26.02;50.28;100424.41;5073192;28;20497;-77
2024/04/08 12:57:16;;;;;;;11.38;5.90;;;;;;;25.95;51.17;100426.44;5075960;28;20071;-77
2024/04/08 13:00:20;;;;;;;9.35;5.40;;;;;;;25.92;51.63;100427.72;5093597;28;20043;-76
2024/04/08 13:03:25;;;;;;;8.60;5.22;;;;;;;26.10;50.63;100424.06;5093457;28;20067;-75
2024/04/08 13:06:30;;;;;;;10.40;5.18;;;;;;;26.08;51.46;100424.31;5093371;28;20378;-75
2024/04/08 13:09:34;;;;;;;12.30;5.90;;;;;;;26.12;50.97;100420.03;5092936;28;20070;-78
2024/04/08 13:12:39;;;;;;;10.05;5.70;;;;;;;26.16;51.86;100423.19;5093228;28;20493;-78
2024/04/08 13:15:43;;;;;;;9.45;4.75;;;;;;;26.12;52.21;100411.78;5093254;28;20044;-77
2024/04/08 13:18:48;;;;;;;9.93;5.40;;;;;;;25.99;50.71;100409.22;5093227;28;20059;-79
2024/04/08 13:21:53;;;;;;;8.93;5.40;;;;;;;25.95;51.06;100405.25;5093255;28;20059;-75
2024/04/08 13:24:57;;;;;;;6.57;4.80;;;;;;;26.07;49.53;100419.88;5093103;28;20485;-75
2024/04/08 13:28:03;;;;;;;8.63;4.53;;;;;;;26.13;50.15;100413.47;5093291;28;20051;-78
2024/04/08 13:31:07;;;;;;;9.45;5.05;;;;;;;26.06;50.53;100415.47;5069128;28;20051;-78
2024/04/08 13:34:12;;;;;;;8.00;5.00;;;;;;;26.06;51.22;100403.59;5093101;28;20493;-77
2024/04/08 13:37:17;;;;;;;9.07;5.05;;;;;;;26.04;50.92;100403.84;5093103;28;20413;-76
2024/04/08 13:40:22;;;;;;;12.95;6.07;;;;;;;26.06;50.79;100398.94;5057814;28;20051;-76
2024/04/08 13:43:26;;;;;;;8.25;4.60;;;;;;;25.90;51.90;100396.03;5092838;28;20055;-78
2024/04/08 13:46:31;;;;;;;9.10;4.60;;;;;;;25.93;52.14;100382.63;5093119;28;20067;-77
2024/04/08 13:49:37;;;;;;;7.97;4.20;;;;;;;26.13;51.57;100383.22;5093104;28;20047;-75
2024/04/08 13:52:41;;;;;;;6.85;3.63;;;;;;;26.26;52.04;100377.50;5092981;28;20067;-76
2024/04/08 13:55:57;;;;;;;8.73;3.72;;;;;;;26.34;51.24;100373.56;5092915;28;20051;-75
2024/04/08 13:59:02;;;;;;;8.30;3.50;;;;;;;26.44;51.36;100377.41;5092328;28;20047;-77
2024/04/08 14:02:07;;;;;;;8.88;3.90;;;;;;;26.44;50.56;100373.84;5092725;28;20040;-77
2024/04/08 14:05:12;;;;;;;11.18;3.60;;;;;;;26.39;50.94;100379.22;5096536;28;20058;-76
2024/04/08 14:08:17;;;;;;;8.38;4.00;;;;;;;26.40;51.76;100372.59;5096400;28;20040;-78
2024/04/08 14:11:21;;;;;;;8.00;3.40;;;;;;;26.25;51.64;100380.47;5083944;28;20501;-79
2024/04/08 14:14:26;;;;;;;5.88;3.40;;;;;;;26.35;51.15;100380.75;5072433;28;20142;-78
2024/04/08 14:17:31;;;;;;;11.80;4.18;;;;;;;26.49;51.16;100371.22;5083897;28;20063;-76
2024/04/08 14:20:36;;;;;;;8.40;3.70;;;;;;;26.62;50.32;100361.84;5083625;28;20381;-76
2024/04/08 14:23:41;;;;;;;8.85;3.35;;;;;;;26.52;51.67;100364.38;5096068;28;20421;-76